createdAt,value
2019-06-10T16:48:02.483Z,32.30
2019-06-10T16:50:34.086Z,32.20
2019-06-10T16:53:03.571Z,32.10
2019-06-10T16:55:33.536Z,32.10
2019-06-10T16:58:03.360Z,32.10
2019-06-10T17:00:34.772Z,32.00
2019-06-10T17:03:05.011Z,32.00
2019-06-10T17:05:35.021Z,32.00
2019-06-10T17:08:04.761Z,31.90
2019-06-10T17:10:34.646Z,31.90
2019-06-10T17:13:06.067Z,31.90
2019-06-10T17:15:35.745Z,31.90
2019-06-10T17:18:05.616Z,31.80
2019-06-10T17:20:35.324Z,31.80
2019-06-10T17:23:26.953Z,31.70
2019-06-10T17:25:57.174Z,31.70
2019-06-10T17:28:31.733Z,31.70
2019-06-10T17:30:59.453Z,31.60
2019-06-10T17:33:30.347Z,31.60
2019-06-10T17:36:03.099Z,31.60
2019-06-10T17:38:31.982Z,31.50
2019-06-10T17:41:02.937Z,31.50
2019-06-10T17:43:34.410Z,31.50
2019-06-10T17:46:04.797Z,31.50
2019-06-10T17:48:34.850Z,31.40
2019-06-10T17:51:05.022Z,31.40
2019-06-10T17:53:35.197Z,31.40
2019-06-10T17:56:05.142Z,31.30
2019-06-10T17:58:50.071Z,31.30
2019-06-10T18:01:06.244Z,31.30
2019-06-10T18:03:39.121Z,31.20
2019-06-10T18:06:07.138Z,31.20
2019-06-10T18:08:40.497Z,31.20
2019-06-10T18:11:08.154Z,31.20
2019-06-10T18:13:37.809Z,31.10
2019-06-10T18:16:07.562Z,31.10
2019-06-10T18:18:37.422Z,31.00
2019-06-10T18:21:07.009Z,31.00
2019-06-10T18:23:36.658Z,31.00
2019-06-10T18:26:06.339Z,30.90
2019-06-10T18:28:56.945Z,30.90
2019-06-10T18:31:07.414Z,30.80
2019-06-10T18:33:38.068Z,30.80
2019-06-10T18:36:12.048Z,30.70
2019-06-10T18:38:43.293Z,30.70
2019-06-10T18:41:13.332Z,30.60
2019-06-10T18:43:43.038Z,30.60
2019-06-10T18:46:12.922Z,30.50
2019-06-10T18:48:43.205Z,30.50
2019-06-10T18:51:13.033Z,30.50
2019-06-10T18:53:42.903Z,30.40
2019-06-10T18:56:12.985Z,30.40
2019-06-10T18:58:42.960Z,30.30
2019-06-10T19:01:12.750Z,30.30
2019-06-10T19:03:43.093Z,30.30
2019-06-10T19:06:13.128Z,30.30
2019-06-10T19:08:44.249Z,30.20
2019-06-10T19:11:14.600Z,30.20
2019-06-10T19:13:44.375Z,30.20
2019-06-10T19:16:14.208Z,30.10
2019-06-10T19:18:43.982Z,30.10
2019-06-10T19:21:13.752Z,30.10
2019-06-10T19:23:44.085Z,30.10
2019-06-10T19:26:14.038Z,30.00
2019-06-10T19:28:45.136Z,30.00
2019-06-10T19:31:15.025Z,29.90
2019-06-10T19:33:45.522Z,29.90
2019-06-10T19:36:15.399Z,29.90
2019-06-10T19:38:45.095Z,29.80
2019-06-10T19:41:14.812Z,29.80
2019-06-10T19:43:45.504Z,29.80
2019-06-10T19:46:15.386Z,29.80
2019-06-10T19:48:57.170Z,29.80
2019-06-10T19:51:16.310Z,29.70
2019-06-10T19:53:46.049Z,29.70
2019-06-10T19:56:15.926Z,29.60
2019-06-10T19:58:46.522Z,29.60
2019-06-10T20:01:16.369Z,29.60
2019-06-10T20:03:47.089Z,29.60
2019-06-10T20:06:17.159Z,29.50
2019-06-10T20:08:46.823Z,29.50
2019-06-10T20:11:16.924Z,29.50
2019-06-10T20:13:47.155Z,29.50
2019-06-10T20:16:16.915Z,29.50
2019-06-10T20:18:48.189Z,29.40
2019-06-10T20:21:18.091Z,29.40
2019-06-10T20:23:48.148Z,29.40
2019-06-10T20:26:17.894Z,29.30
2019-06-10T20:28:52.156Z,29.30
2019-06-10T20:31:19.103Z,29.30
2019-06-10T20:33:48.732Z,29.30
2019-06-10T20:36:23.284Z,29.30
2019-06-10T20:38:51.245Z,29.20
2019-06-10T20:41:21.471Z,29.20
2019-06-10T20:43:55.117Z,29.20
2019-06-10T20:46:23.559Z,29.20
2019-06-10T20:48:54.583Z,29.20
2019-06-10T20:51:27.013Z,29.20
2019-06-10T20:53:56.002Z,29.20
2019-06-10T20:56:25.803Z,29.20
2019-06-10T20:58:55.768Z,29.10
2019-06-10T21:01:25.824Z,29.10
2019-06-10T21:03:55.753Z,29.10
2019-06-10T21:06:26.900Z,29.10
2019-06-10T21:08:56.624Z,29.10
2019-06-10T21:11:26.381Z,29.10
2019-06-10T21:13:56.111Z,29.10
2019-06-10T21:16:25.790Z,29.10
2019-06-10T21:18:55.826Z,29.10
2019-06-10T21:21:25.846Z,29.00
2019-06-10T21:23:55.599Z,28.80
2019-06-10T21:26:25.335Z,28.40
2019-06-10T21:28:55.394Z,28.00
2019-06-10T21:31:25.169Z,27.90
2019-06-10T21:33:55.829Z,27.80
2019-06-10T21:36:25.667Z,27.70
2019-06-10T21:38:55.895Z,27.60
2019-06-10T21:41:25.874Z,27.60
2019-06-10T21:43:59.200Z,27.60
2019-06-10T21:46:27.462Z,27.40
2019-06-10T21:48:57.221Z,27.20
2019-06-10T21:51:26.854Z,27.30
2019-06-10T21:53:56.651Z,27.40
2019-06-10T21:56:26.380Z,27.40
2019-06-10T21:58:56.143Z,27.40
2019-06-10T22:01:26.024Z,27.40
2019-06-10T22:04:00.827Z,27.40
2019-06-10T22:06:27.414Z,27.40
2019-06-10T22:08:57.177Z,27.40
2019-06-10T22:11:26.943Z,27.30
2019-06-10T22:13:56.594Z,27.30
2019-06-10T22:16:26.727Z,27.20
2019-06-10T22:18:56.900Z,27.20
2019-06-10T22:21:28.115Z,27.30
2019-06-10T22:24:02.020Z,27.20
2019-06-10T22:26:36.197Z,27.30
2019-06-10T22:29:08.433Z,27.50
2019-06-10T22:31:42.866Z,27.70
2019-06-10T22:34:14.991Z,27.80
2019-06-10T22:36:47.931Z,27.90
2019-06-10T22:39:19.589Z,28.00
2019-06-10T22:41:53.658Z,28.10
2019-06-10T22:44:24.343Z,28.20
2019-06-10T22:46:55.305Z,28.20
2019-06-10T22:49:25.726Z,28.20
2019-06-10T22:51:58.275Z,28.30
2019-06-10T22:54:27.314Z,28.30
2019-06-10T22:56:58.369Z,28.30
2019-06-10T22:59:29.001Z,28.30
2019-06-10T23:02:00.170Z,28.40
2019-06-10T23:04:32.957Z,28.40
2019-06-10T23:07:03.042Z,28.40
2019-06-10T23:09:33.537Z,28.40
2019-06-10T23:12:03.561Z,28.40
2019-06-10T23:14:33.707Z,28.40
2019-06-10T23:17:03.783Z,28.40
2019-06-10T23:19:33.903Z,28.40
2019-06-10T23:22:04.373Z,28.40
2019-06-10T23:24:34.025Z,28.40
2019-06-10T23:27:03.839Z,28.40
2019-06-10T23:29:33.620Z,28.40
2019-06-10T23:32:06.880Z,28.40
2019-06-10T23:34:34.851Z,28.40
2019-06-10T23:37:04.619Z,28.30
2019-06-10T23:39:34.279Z,28.30
2019-06-10T23:42:04.872Z,28.30
2019-06-10T23:44:34.918Z,28.30
2019-06-10T23:47:04.888Z,28.30
2019-06-10T23:49:34.622Z,28.30
2019-06-10T23:52:05.469Z,28.30
2019-06-10T23:54:35.490Z,28.30
2019-06-10T23:57:06.259Z,28.30
2019-06-10T23:59:36.115Z,28.30
